createdAt,value
2023-03-04T00:00:46.257Z,100042.34
2023-03-04T00:03:15.698Z,100039.69
2023-03-04T00:05:43.005Z,100040.25
2023-03-04T00:08:10.153Z,100041.88
2023-03-04T00:10:37.624Z,100050.41
2023-03-04T00:13:04.789Z,100043.97
2023-03-04T00:15:31.954Z,100050.22
2023-03-04T00:17:59.421Z,100044.16
2023-03-04T00:20:45.247Z,100044.25
2023-03-04T00:23:12.859Z,100048.97
2023-03-04T00:25:41.462Z,100039.06
2023-03-04T00:28:10.416Z,100043.50
2023-03-04T00:30:37.877Z,100027.88
2023-03-04T00:33:05.046Z,100034.16
2023-03-04T00:35:32.262Z,100036.44
2023-03-04T00:37:59.693Z,100038.91
2023-03-04T00:40:26.901Z,100037.00
2023-03-04T00:42:54.106Z,100038.78
2023-03-04T00:45:21.543Z,100036.16
2023-03-04T00:47:48.674Z,100041.94
2023-03-04T00:50:15.986Z,100034.47
2023-03-04T00:52:43.529Z,100032.66
2023-03-04T00:55:10.846Z,100024.09
2023-03-04T00:57:38.166Z,100029.47
2023-03-04T01:00:07.341Z,100022.16
2023-03-04T01:02:35.162Z,100026.81
2023-03-04T01:05:02.349Z,100021.78
2023-03-04T01:07:29.829Z,100020.06
2023-03-04T01:09:57.315Z,100023.44
2023-03-04T01:12:24.958Z,100014.75
2023-03-04T01:14:52.450Z,100018.34
2023-03-04T01:17:19.730Z,100009.75
2023-03-04T01:19:47.751Z,100010.41
2023-03-04T01:22:16.702Z,100009.16
2023-03-04T01:24:44.024Z,100014.44
2023-03-04T01:27:11.377Z,100006.44
2023-03-04T01:29:38.810Z,100007.69
2023-03-04T01:32:06.055Z,100009.97
2023-03-04T01:34:33.250Z,100007.38
2023-03-04T01:37:04.680Z,100006.81
2023-03-04T01:39:31.902Z,99998.44
2023-03-04T01:41:59.072Z,99998.94
2023-03-04T01:44:26.538Z,100000.22
2023-03-04T01:46:54.298Z,99998.44
2023-03-04T01:49:21.752Z,99992.16
2023-03-04T01:51:50.496Z,99990.53
2023-03-04T01:54:17.676Z,99993.84
2023-03-04T01:56:45.466Z,99999.22
2023-03-04T01:59:12.930Z,99986.94
2023-03-04T02:01:41.301Z,99986.94
2023-03-04T02:04:08.934Z,99988.16
2023-03-04T02:06:37.510Z,99986.91
2023-03-04T02:09:04.851Z,99985.09
2023-03-04T02:11:33.133Z,99987.31
2023-03-04T02:14:01.023Z,99974.84
2023-03-04T02:16:28.230Z,99976.41
2023-03-04T02:18:55.484Z,99970.06
2023-03-04T02:21:23.743Z,99971.91
2023-03-04T02:24:06.433Z,99967.69
2023-03-04T02:26:35.180Z,99975.47
2023-03-04T02:29:02.791Z,99963.31
2023-03-04T02:31:34.671Z,99962.69
2023-03-04T02:34:02.894Z,99953.75
2023-03-04T02:36:30.218Z,99959.88
2023-03-04T02:39:01.398Z,99949.84
2023-03-04T02:41:29.964Z,99952.00
2023-03-04T02:43:58.152Z,99943.53
2023-03-04T02:46:25.404Z,99936.66
2023-03-04T02:48:53.100Z,99938.44
2023-03-04T02:51:20.270Z,99938.19
2023-03-04T02:53:48.269Z,99937.06
2023-03-04T02:56:15.874Z,99932.16
2023-03-04T02:58:43.058Z,99928.38
2023-03-04T03:01:11.637Z,99926.22
2023-03-04T03:03:39.298Z,99927.38
2023-03-04T03:06:06.576Z,99925.06
2023-03-04T03:08:33.852Z,99923.06
2023-03-04T03:11:01.463Z,99929.03
2023-03-04T03:13:29.969Z,99926.59
2023-03-04T03:15:57.126Z,99925.19
2023-03-04T03:18:24.682Z,99923.63
2023-03-04T03:20:51.876Z,99921.84
2023-03-04T03:23:20.991Z,99920.31
2023-03-04T03:25:48.409Z,99916.44
2023-03-04T03:28:15.735Z,99909.03
2023-03-04T03:30:42.926Z,99908.72
2023-03-04T03:33:10.363Z,99906.62
2023-03-04T03:35:38.357Z,99910.63
2023-03-04T03:38:06.937Z,99906.53
2023-03-04T03:40:34.468Z,99908.06
2023-03-04T03:43:01.725Z,99904.06
2023-03-04T03:45:28.880Z,99890.88
2023-03-04T03:47:56.491Z,99899.25
2023-03-04T03:50:23.680Z,99894.50
2023-03-04T03:52:50.873Z,99895.94
2023-03-04T03:55:18.333Z,99898.78
2023-03-04T03:57:45.500Z,99892.06
2023-03-04T04:00:12.893Z,99896.81
2023-03-04T04:02:40.866Z,99895.69
2023-03-04T04:05:08.537Z,99896.59
2023-03-04T04:07:36.798Z,99884.78
2023-03-04T04:10:05.562Z,99883.03
2023-03-04T04:12:32.997Z,99879.13
2023-03-04T04:15:01.109Z,99890.56
2023-03-04T04:17:28.907Z,99889.47
2023-03-04T04:19:56.300Z,99885.69
2023-03-04T04:22:23.710Z,99882.03
2023-03-04T04:24:51.425Z,99875.19
2023-03-04T04:27:18.880Z,99874.94
2023-03-04T04:29:46.200Z,99873.72
2023-03-04T04:32:13.824Z,99881.38
2023-03-04T04:34:41.300Z,99873.38
2023-03-04T04:37:08.655Z,99880.44
2023-03-04T04:39:36.162Z,99874.13
2023-03-04T04:42:03.627Z,99881.31
2023-03-04T04:44:30.870Z,99877.03
2023-03-04T04:46:58.315Z,99869.97
2023-03-04T04:49:26.660Z,99872.56
2023-03-04T04:51:53.839Z,99875.00
2023-03-04T04:54:21.259Z,99869.41
2023-03-04T04:56:48.444Z,99854.66
2023-03-04T04:59:15.764Z,99865.88
2023-03-04T05:01:43.433Z,99862.28
2023-03-04T05:04:11.763Z,99862.53
2023-03-04T05:06:39.347Z,99862.41
2023-03-04T05:09:07.321Z,99855.25
2023-03-04T05:11:34.824Z,99860.25
2023-03-04T05:14:02.193Z,99858.34
2023-03-04T05:16:29.919Z,99855.94
2023-03-04T05:18:57.388Z,99856.63
2023-03-04T05:21:24.942Z,99870.13
2023-03-04T05:23:52.582Z,99867.41
2023-03-04T05:26:20.968Z,99866.66
2023-03-04T05:28:48.310Z,99863.63
2023-03-04T05:31:16.558Z,99862.22
2023-03-04T05:33:43.880Z,99869.41
2023-03-04T05:36:11.072Z,99874.75
2023-03-04T05:38:38.583Z,99877.69
2023-03-04T05:41:06.464Z,99883.25
2023-03-04T05:43:36.075Z,99874.88
2023-03-04T05:46:04.455Z,99875.59
2023-03-04T05:48:32.026Z,99885.47
2023-03-04T05:51:00.733Z,99874.41
2023-03-04T05:53:28.714Z,99884.16
2023-03-04T05:55:56.214Z,99883.06
2023-03-04T05:58:23.673Z,99882.03
2023-03-04T06:00:51.493Z,99889.53
2023-03-04T06:03:22.127Z,99900.19
2023-03-04T06:05:49.525Z,99893.84
2023-03-04T06:08:16.961Z,99901.28
2023-03-04T06:10:45.418Z,99900.50
2023-03-04T06:13:12.974Z,99898.94
2023-03-04T06:15:40.417Z,99900.91
2023-03-04T06:18:08.352Z,99899.12
2023-03-04T06:20:35.625Z,99912.63
2023-03-04T06:23:03.849Z,99914.78
2023-03-04T06:25:31.746Z,99912.19
2023-03-04T06:27:59.583Z,99924.03
2023-03-04T06:30:27.457Z,99918.22
2023-03-04T06:32:55.179Z,99920.44
2023-03-04T06:35:22.506Z,99930.41
2023-03-04T06:37:49.854Z,99930.13
2023-03-04T06:40:17.565Z,99935.69
2023-03-04T06:42:44.950Z,99938.66
2023-03-04T06:45:12.390Z,99927.44
2023-03-04T06:47:40.387Z,99939.19
2023-03-04T06:50:07.855Z,99943.97
2023-03-04T06:52:35.164Z,99939.78
2023-03-04T06:55:02.613Z,99937.63
2023-03-04T06:57:30.071Z,99935.41
2023-03-04T06:59:57.367Z,99933.19
2023-03-04T07:02:25.021Z,99941.28
2023-03-04T07:04:52.299Z,99941.88
2023-03-04T07:07:19.584Z,99937.12
2023-03-04T07:09:47.423Z,99938.16
2023-03-04T07:12:14.915Z,99935.22
2023-03-04T07:14:42.306Z,99935.31
2023-03-04T07:17:10.232Z,99932.06
2023-03-04T07:19:38.105Z,99932.25
2023-03-04T07:22:05.519Z,99931.66
2023-03-04T07:24:33.146Z,99930.47
2023-03-04T07:27:00.713Z,99927.69
2023-03-04T07:29:28.204Z,99923.50
2023-03-04T07:31:56.005Z,99922.41
2023-03-04T07:34:23.400Z,99922.53
2023-03-04T07:36:50.700Z,99909.03
2023-03-04T07:39:18.372Z,99912.72
2023-03-04T07:41:45.802Z,99917.47
2023-03-04T07:44:13.639Z,99911.06
2023-03-04T07:46:41.425Z,99915.69
2023-03-04T07:49:08.804Z,99913.53
2023-03-04T07:51:37.153Z,99918.25
2023-03-04T07:54:04.859Z,99909.97
2023-03-04T07:56:33.710Z,99912.72
2023-03-04T07:59:01.644Z,99917.06
2023-03-04T08:01:37.410Z,99916.66
2023-03-04T08:04:06.618Z,99912.00
2023-03-04T08:06:36.086Z,99905.72
2023-03-04T08:09:08.797Z,99908.81
2023-03-04T08:11:37.855Z,99915.38
2023-03-04T08:14:05.334Z,99915.50
2023-03-04T08:16:33.137Z,99906.78
2023-03-04T08:19:02.503Z,99911.16
2023-03-04T08:21:31.072Z,99908.28
2023-03-04T08:24:02.451Z,99905.28
2023-03-04T08:26:33.976Z,99901.75
2023-03-04T08:29:02.953Z,99899.97
2023-03-04T08:31:31.596Z,99904.00
2023-03-04T08:33:59.008Z,99904.16
2023-03-04T08:36:26.462Z,99907.06
2023-03-04T08:38:54.160Z,99898.00
2023-03-04T08:41:22.792Z,99904.09
2023-03-04T08:43:50.258Z,99899.03
2023-03-04T08:46:18.142Z,99896.56
2023-03-04T08:48:45.538Z,99898.88
2023-03-04T08:51:14.627Z,99889.09
2023-03-04T08:53:45.294Z,99891.94
2023-03-04T08:56:13.183Z,99881.41
2023-03-04T08:58:40.866Z,99890.16
2023-03-04T09:01:10.687Z,99882.28
2023-03-04T09:03:38.817Z,99887.56
2023-03-04T09:06:09.149Z,99882.44
2023-03-04T09:08:37.044Z,99863.37
2023-03-04T09:11:04.550Z,99875.59
2023-03-04T09:13:32.607Z,99876.66
2023-03-04T09:16:01.091Z,99873.78
2023-03-04T09:18:29.043Z,99878.06
2023-03-04T09:20:56.434Z,99872.91
2023-03-04T09:23:24.134Z,99864.25
2023-03-04T09:25:51.630Z,99867.22
2023-03-04T09:31:11.873Z,99867.62
2023-03-04T09:33:41.566Z,99864.00
2023-03-04T09:36:11.343Z,99870.97
2023-03-04T09:38:39.323Z,99861.06
2023-03-04T09:41:16.223Z,99861.00
2023-03-04T09:43:44.566Z,99864.47
2023-03-04T09:46:16.167Z,99864.69
2023-03-04T09:48:47.909Z,99864.94
2023-03-04T09:51:17.989Z,99862.00
2023-03-04T09:53:48.697Z,99854.66
2023-03-04T09:56:16.265Z,99855.06
2023-03-04T09:58:48.785Z,99857.66
2023-03-04T10:01:22.841Z,99849.91
2023-03-04T10:04:05.674Z,99833.75
2023-03-04T10:06:33.997Z,99837.72
2023-03-04T10:09:05.179Z,99839.00
2023-03-04T10:11:41.007Z,99820.22
2023-03-04T10:14:19.837Z,99828.59
2023-03-04T10:16:53.713Z,99828.94
2023-03-04T10:19:44.291Z,99827.59
2023-03-04T10:22:36.941Z,99821.25
2023-03-04T10:25:19.655Z,99822.22
2023-03-04T10:27:59.928Z,99820.47
2023-03-04T10:31:01.510Z,99812.03
2023-03-04T10:33:39.948Z,99802.56
2023-03-04T10:36:36.853Z,99804.94
2023-03-04T10:39:19.552Z,99791.50
2023-03-04T10:42:14.397Z,99798.22
2023-03-04T10:44:51.405Z,99789.72
2023-03-04T10:47:19.122Z,99791.84
2023-03-04T10:50:00.777Z,99774.53
2023-03-04T10:52:29.788Z,99772.97
2023-03-04T10:55:06.549Z,99777.25
2023-03-04T10:57:41.905Z,99776.56
2023-03-04T11:00:18.329Z,99771.94
2023-03-04T11:02:47.478Z,99769.09
2023-03-04T11:05:14.779Z,99765.13
2023-03-04T11:07:55.247Z,99762.13
2023-03-04T11:10:38.887Z,99757.06
2023-03-04T11:13:22.013Z,99755.25
2023-03-04T11:15:51.428Z,99747.38
2023-03-04T11:18:43.872Z,99754.88
2023-03-04T11:21:20.132Z,99743.69
2023-03-04T11:23:52.260Z,99742.69
2023-03-04T11:26:27.571Z,99739.69
2023-03-04T11:29:16.008Z,99743.78
2023-03-04T11:31:50.303Z,99724.78
2023-03-04T11:34:17.632Z,99736.38
2023-03-04T11:36:57.401Z,99736.69
2023-03-04T11:39:30.720Z,99722.56
2023-03-04T11:42:23.478Z,99720.78
2023-03-04T11:44:51.887Z,99719.78
2023-03-04T11:47:28.923Z,99708.56
2023-03-04T11:50:35.095Z,99707.50
2023-03-04T11:53:02.737Z,99708.59
2023-03-04T11:55:35.838Z,99704.19
2023-03-04T11:58:21.991Z,99698.78
2023-03-04T12:01:10.433Z,99686.00
2023-03-04T12:04:12.496Z,99695.03
2023-03-04T12:07:01.292Z,99693.59
2023-03-04T12:09:51.835Z,99677.38
2023-03-04T12:12:53.305Z,99683.00
2023-03-04T12:15:29.712Z,99680.59
2023-03-04T12:18:18.676Z,99675.66
2023-03-04T12:20:59.885Z,99671.50
2023-03-04T12:23:27.227Z,99667.06
2023-03-04T12:26:27.071Z,99657.69
2023-03-04T12:28:56.990Z,99669.16
2023-03-04T12:31:30.574Z,99670.53
2023-03-04T12:34:19.441Z,99675.63
2023-03-04T12:37:20.236Z,99672.50
2023-03-04T12:40:26.702Z,99657.50
2023-03-04T12:43:16.084Z,99651.50
2023-03-04T12:46:05.138Z,99642.16
2023-03-04T12:48:37.660Z,99653.78
2023-03-04T12:51:15.939Z,99661.00
2023-03-04T12:53:58.619Z,99645.06
2023-03-04T18:09:35.143Z,99578.75
2023-03-04T18:12:05.415Z,99578.75
2023-03-04T18:14:33.813Z,99574.25
2023-03-04T18:17:02.321Z,99578.75
2023-03-04T18:19:30.923Z,99585.69
2023-03-04T18:21:59.339Z,99587.19
2023-03-04T18:24:27.057Z,99587.88
2023-03-04T18:33:20.609Z,99590.13
2023-03-04T18:35:49.587Z,99588.75
2023-03-04T18:38:17.852Z,99600.47
2023-03-04T18:40:45.702Z,99593.09
2023-03-04T18:43:14.149Z,99601.19
2023-03-04T18:45:44.395Z,99606.34
2023-03-04T18:48:12.802Z,99608.41
2023-03-04T18:50:43.629Z,99609.94
2023-03-04T18:53:12.698Z,99622.25
2023-03-04T18:55:43.145Z,99619.00
2023-03-04T18:58:12.273Z,99636.81
2023-03-04T19:00:40.344Z,99632.47
2023-03-04T19:03:10.070Z,99633.38
2023-03-04T19:05:39.775Z,99642.94
2023-03-04T19:08:08.175Z,99643.75
2023-03-04T19:10:36.554Z,99644.81
2023-03-04T19:13:05.924Z,99644.66
2023-03-04T19:15:38.051Z,99628.75
2023-03-04T19:18:07.237Z,99645.47
2023-03-04T19:20:41.091Z,99646.53
2023-03-04T19:23:10.678Z,99636.28
2023-03-04T19:25:39.426Z,99652.88
2023-03-04T19:28:07.642Z,99647.50
2023-03-04T19:30:42.243Z,99653.56
2023-03-04T19:33:10.990Z,99651.56
2023-03-04T19:35:41.896Z,99653.38
2023-03-04T19:38:10.536Z,99654.06
2023-03-04T19:40:40.464Z,99654.12
2023-03-04T19:43:08.805Z,99665.09
2023-03-04T19:45:38.431Z,99663.09
2023-03-04T19:48:06.931Z,99675.00
2023-03-04T19:50:35.098Z,99679.03
2023-03-04T19:53:03.312Z,99678.09
2023-03-04T19:55:32.110Z,99674.72
2023-03-04T19:58:01.125Z,99686.47
2023-03-04T20:00:29.814Z,99685.50
2023-03-04T20:02:58.950Z,99687.44
2023-03-04T20:05:29.559Z,99684.22
2023-03-04T20:07:57.665Z,99680.22
2023-03-04T20:10:26.757Z,99688.53
2023-03-04T20:12:58.919Z,99693.09
2023-03-04T20:15:28.161Z,99685.78
2023-03-04T20:18:00.312Z,99687.56
2023-03-04T20:20:29.880Z,99692.31
2023-03-04T20:22:59.581Z,99688.66
2023-03-04T20:25:29.473Z,99693.78
2023-03-04T20:27:59.298Z,99699.00
2023-03-04T20:30:30.065Z,99693.78
2023-03-04T20:32:58.409Z,99699.75
2023-03-04T20:35:26.486Z,99695.25
2023-03-04T20:37:55.168Z,99692.03
2023-03-04T20:40:24.520Z,99696.84
2023-03-04T20:42:53.260Z,99691.13
2023-03-04T20:45:22.668Z,99688.69
2023-03-04T20:47:52.627Z,99690.81
2023-03-04T20:50:20.528Z,99694.16
2023-03-04T20:52:48.748Z,99697.50
2023-03-04T20:55:16.663Z,99690.00
2023-03-04T20:57:44.935Z,99685.78
2023-03-04T21:00:15.743Z,99681.91
2023-03-04T21:02:44.351Z,99685.06
2023-03-04T21:05:14.276Z,99688.56
2023-03-04T21:07:43.252Z,99690.25
2023-03-04T21:10:11.600Z,99697.41
2023-03-04T21:12:39.923Z,99696.44
2023-03-04T21:15:07.954Z,99691.41
2023-03-04T21:17:36.781Z,99696.66
2023-03-04T21:20:04.949Z,99697.06
2023-03-04T21:22:32.465Z,99692.00
2023-03-04T21:25:03.394Z,99696.13
2023-03-04T21:27:31.479Z,99696.94
2023-03-04T21:29:59.114Z,99704.00
2023-03-04T21:32:28.833Z,99693.31
2023-03-04T21:34:58.236Z,99693.28
2023-03-04T21:37:26.100Z,99696.34
2023-03-04T21:39:54.342Z,99690.66
2023-03-04T21:42:25.982Z,99689.50
2023-03-04T21:44:54.005Z,99691.19
2023-03-04T21:47:21.624Z,99698.56
2023-03-04T21:49:49.531Z,99701.97
2023-03-04T21:52:17.809Z,99691.19
2023-03-04T21:54:45.099Z,99696.13
2023-03-04T21:57:14.168Z,99705.47
2023-03-04T21:59:42.026Z,99699.03
2023-03-04T22:02:14.378Z,99699.47
2023-03-04T22:04:42.455Z,99704.53
2023-03-04T22:07:09.960Z,99690.22
2023-03-04T22:09:37.801Z,99694.09
2023-03-04T22:12:06.232Z,99691.91
2023-03-04T22:14:33.812Z,99697.47
2023-03-04T22:17:01.271Z,99705.97
2023-03-04T22:19:31.853Z,99709.31
2023-03-04T22:21:59.823Z,99706.44
2023-03-04T22:24:27.573Z,99701.31
2023-03-04T22:26:57.623Z,99700.44
2023-03-04T22:29:25.050Z,99696.00
2023-03-04T22:31:52.465Z,99706.91
2023-03-04T22:34:20.211Z,99702.66
2023-03-04T22:36:49.260Z,99692.66
2023-03-04T22:39:21.188Z,99697.78
2023-03-04T22:41:49.028Z,99697.78
2023-03-04T22:44:16.475Z,99696.09
2023-03-04T22:46:44.555Z,99702.91
2023-03-04T22:49:13.651Z,99694.22
2023-03-04T22:51:43.775Z,99703.09
2023-03-04T22:54:15.708Z,99707.56
2023-03-04T22:56:44.018Z,99714.56
2023-03-04T22:59:11.475Z,99716.12
2023-03-04T23:01:38.913Z,99713.56
2023-03-04T23:04:06.658Z,99710.56
2023-03-04T23:06:34.595Z,99707.56
2023-03-04T23:09:01.970Z,99707.78
2023-03-04T23:11:31.801Z,99718.91
2023-03-04T23:14:02.116Z,99718.00
2023-03-04T23:16:29.992Z,99716.34
2023-03-04T23:18:59.396Z,99726.47
2023-03-04T23:21:28.404Z,99715.81
2023-03-04T23:23:56.168Z,99717.13
2023-03-04T23:26:26.245Z,99712.47
2023-03-04T23:28:55.757Z,99716.88
2023-03-04T23:31:23.636Z,99711.56
2023-03-04T23:33:51.170Z,99727.69
2023-03-04T23:36:19.782Z,99718.44
2023-03-04T23:38:48.516Z,99724.81
2023-03-04T23:41:18.364Z,99727.13
2023-03-04T23:43:46.975Z,99726.00
2023-03-04T23:46:15.377Z,99742.72
2023-03-04T23:48:46.516Z,99740.72
2023-03-04T23:51:15.292Z,99739.59
2023-03-04T23:53:43.495Z,99734.81
2023-03-04T23:56:12.427Z,99731.38
2023-03-04T23:58:41.317Z,99740.28
